PWSweather.com
Personal Weather Stations
Station Observations
SD92115WX
El Cerrito Stoneybluff, San Diego, CA 92115

El Cerrito StoneybluffSan Diego, CA 92115

Lat: 32.754096, Lon: -117.066705

Elevation: 420

Station Type: Davis Vantage Vue

http://stoneybluff.com

High Low Average
Temperature 70.3°F21.3°C 57.0°F13.9°C 61.3°F16.3°C
Dew Point 61.0°F16.1°C 54.3°F12.4°C 56.8°F13.8°C
Winds 6.9 mph 11.1 kmh Calm Calm 1.0 mph WSW1.6 kmh WSW
Wind Gusts 13.9 mph22.4 kmh -- 3.0 mph4.8 kmh
Humidity 94% 65% 86%
Pressure 29.90 in1012.5 mb 29.80 in1009.1 mb -
Precipitation 0.14 in3.6 mm - -
Hour Temp Dew Point Humidity Winds Wind Gusts Pressure Precip Precip Rate Daily Precip Total
12:03 AM 59.4°F15.2°C 55.4°F13.0°C 87% Calm Calm -- 29.85 in1010.8 mb 0.00 in0.0 mm 0.00 in0.0 mm 0.00 in0.0 mm
12:08 AM 59.4°F15.2°C 55.4°F13.0°C 87% Calm Calm -- 29.85 in1010.8 mb 0.00 in0.0 mm 0.00 in0.0 mm 0.00 in0.0 mm
12:13 AM 59.2°F15.1°C 55.4°F13.0°C 87% Calm Calm -- 29.85 in1010.8 mb 0.00 in0.0 mm 0.00 in0.0 mm 0.00 in0.0 mm
12:18 AM 59.2°F15.1°C 55.4°F13.0°C 87% Calm Calm -- 29.85 in1010.8 mb 0.00 in0.0 mm 0.00 in0.0 mm 0.00 in0.0 mm
12:23 AM 59.2°F15.1°C 55.4°F13.0°C 87% Calm Calm -- 29.85 in1010.8 mb 0.00 in0.0 mm 0.00 in0.0 mm 0.00 in0.0 mm
12:28 AM 59.2°F15.1°C 55.4°F13.0°C 87% Calm Calm -- 29.85 in1010.8 mb 0.00 in0.0 mm 0.00 in0.0 mm 0.00 in0.0 mm
12:33 AM 59.4°F15.2°C 55.4°F13.0°C 87% Calm Calm -- 29.85 in1010.8 mb 0.00 in0.0 mm 0.00 in0.0 mm 0.00 in0.0 mm
12:38 AM 59.4°F15.2°C 55.4°F13.0°C 87% Calm Calm -- 29.85 in1010.8 mb 0.00 in0.0 mm 0.00 in0.0 mm 0.00 in0.0 mm
12:43 AM 59.5°F15.3°C 55.6°F13.1°C 87% Calm Calm -- 29.85 in1010.8 mb 0.00 in0.0 mm 0.00 in0.0 mm 0.00 in0.0 mm
12:48 AM 59.4°F15.2°C 55.4°F13.0°C 87% Calm Calm -- 29.85 in1010.8 mb 0.00 in0.0 mm 0.00 in0.0 mm 0.00 in0.0 mm
12:53 AM 59.4°F15.2°C 55.4°F13.0°C 87% Calm Calm -- 29.85 in1010.8 mb 0.00 in0.0 mm 0.00 in0.0 mm 0.00 in0.0 mm
12:58 AM 59.4°F15.2°C 55.4°F13.0°C 87% Calm Calm -- 29.85 in1010.8 mb 0.00 in0.0 mm 0.00 in0.0 mm 0.00 in0.0 mm
01:03 AM 59.4°F15.2°C 55.4°F13.0°C 87% Calm Calm -- 29.85 in1010.8 mb 0.00 in0.0 mm 0.00 in0.0 mm 0.00 in0.0 mm
01:08 AM 59.4°F15.2°C 55.4°F13.0°C 87% Calm Calm -- 29.85 in1010.8 mb 0.00 in0.0 mm 0.00 in0.0 mm 0.00 in0.0 mm
01:13 AM 59.2°F15.1°C 55.4°F13.0°C 87% Calm Calm -- 29.85 in1010.8 mb 0.00 in0.0 mm 0.00 in0.0 mm 0.00 in0.0 mm
01:18 AM 59.2°F15.1°C 55.6°F13.1°C 88% Calm Calm -- 29.85 in1010.8 mb 0.00 in0.0 mm 0.00 in0.0 mm 0.00 in0.0 mm
01:23 AM 59.2°F15.1°C 55.6°F13.1°C 88% Calm Calm -- 29.85 in1010.8 mb 0.00 in0.0 mm 0.00 in0.0 mm 0.00 in0.0 mm
01:28 AM 59.2°F15.1°C 55.6°F13.1°C 88% Calm Calm -- 29.84 in1010.5 mb 0.00 in0.0 mm 0.00 in0.0 mm 0.00 in0.0 mm
01:33 AM 59.0°F15.0°C 55.4°F13.0°C 88% Calm Calm -- 29.85 in1010.8 mb 0.00 in0.0 mm 0.00 in0.0 mm 0.00 in0.0 mm
01:38 AM 59.0°F15.0°C 55.4°F13.0°C 88% Calm Calm -- 29.84 in1010.5 mb 0.00 in0.0 mm 0.00 in0.0 mm 0.00 in0.0 mm
01:43 AM 58.8°F14.9°C 55.2°F12.9°C 88% Calm Calm -- 29.84 in1010.5 mb 0.00 in0.0 mm 0.00 in0.0 mm 0.00 in0.0 mm
01:48 AM 58.8°F14.9°C 55.2°F12.9°C 88% Calm Calm -- 29.84 in1010.5 mb 0.00 in0.0 mm 0.00 in0.0 mm 0.00 in0.0 mm
01:53 AM 58.8°F14.9°C 55.2°F12.9°C 88% Calm Calm -- 29.84 in1010.5 mb 0.00 in0.0 mm 0.00 in0.0 mm 0.00 in0.0 mm
01:58 AM 58.8°F14.9°C 55.6°F13.1°C 89% Calm Calm -- 29.84 in1010.5 mb 0.00 in0.0 mm 0.00 in0.0 mm 0.00 in0.0 mm
02:03 AM 59.0°F15.0°C 55.8°F13.2°C 89% Calm Calm -- 29.84 in1010.5 mb 0.00 in0.0 mm 0.00 in0.0 mm 0.00 in0.0 mm
02:08 AM 59.0°F15.0°C 55.4°F13.0°C 88% Calm Calm -- 29.84 in1010.5 mb 0.00 in0.0 mm 0.00 in0.0 mm 0.00 in0.0 mm
02:13 AM 58.8°F14.9°C 55.2°F12.9°C 88% Calm Calm -- 29.84 in1010.5 mb 0.00 in0.0 mm 0.00 in0.0 mm 0.00 in0.0 mm
02:18 AM 58.8°F14.9°C 55.2°F12.9°C 88% Calm Calm -- 29.84 in1010.5 mb 0.00 in0.0 mm 0.00 in0.0 mm 0.00 in0.0 mm
02:23 AM 58.8°F14.9°C 55.2°F12.9°C 88% Calm Calm -- 29.84 in1010.5 mb 0.00 in0.0 mm 0.00 in0.0 mm 0.00 in0.0 mm
02:28 AM 58.8°F14.9°C 55.2°F12.9°C 88% Calm Calm -- 29.84 in1010.5 mb 0.00 in0.0 mm 0.00 in0.0 mm 0.00 in0.0 mm
02:33 AM 58.6°F14.8°C 55.4°F13.0°C 89% Calm Calm -- 29.84 in1010.5 mb 0.00 in0.0 mm 0.00 in0.0 mm 0.00 in0.0 mm
02:38 AM 58.6°F14.8°C 55.4°F13.0°C 89% Calm Calm -- 29.84 in1010.5 mb 0.00 in0.0 mm 0.00 in0.0 mm 0.00 in0.0 mm
02:43 AM 58.6°F14.8°C 55.0°F12.8°C 88% Calm Calm -- 29.84 in1010.5 mb 0.00 in0.0 mm 0.00 in0.0 mm 0.00 in0.0 mm
02:48 AM 58.5°F14.7°C 55.2°F12.9°C 89% Calm Calm -- 29.84 in1010.5 mb 0.00 in0.0 mm 0.00 in0.0 mm 0.00 in0.0 mm
02:53 AM 58.3°F14.6°C 54.7°F12.6°C 88% Calm Calm -- 29.83 in1010.2 mb 0.00 in0.0 mm 0.00 in0.0 mm 0.00 in0.0 mm
02:58 AM 57.9°F14.4°C 54.7°F12.6°C 89% Calm Calm -- 29.83 in1010.2 mb 0.00 in0.0 mm 0.00 in0.0 mm 0.00 in0.0 mm
03:03 AM 57.9°F14.4°C 54.7°F12.6°C 89% Calm Calm -- 29.83 in1010.2 mb 0.00 in0.0 mm 0.00 in0.0 mm 0.00 in0.0 mm
03:08 AM 57.9°F14.4°C 54.7°F12.6°C 89% Calm Calm -- 29.83 in1010.2 mb 0.00 in0.0 mm 0.00 in0.0 mm 0.00 in0.0 mm
03:13 AM 57.7°F14.3°C 54.5°F12.5°C 89% Calm Calm -- 29.83 in1010.2 mb 0.00 in0.0 mm 0.00 in0.0 mm 0.00 in0.0 mm
03:18 AM 57.7°F14.3°C 54.5°F12.5°C 89% Calm Calm -- 29.84 in1010.5 mb 0.00 in0.0 mm 0.00 in0.0 mm 0.00 in0.0 mm
03:23 AM 57.6°F14.2°C 54.3°F12.4°C 89% Calm Calm -- 29.84 in1010.5 mb 0.00 in0.0 mm 0.00 in0.0 mm 0.00 in0.0 mm
03:28 AM 57.6°F14.2°C 54.3°F12.4°C 89% Calm Calm -- 29.84 in1010.5 mb 0.00 in0.0 mm 0.00 in0.0 mm 0.00 in0.0 mm
03:33 AM 57.4°F14.1°C 54.5°F12.5°C 90% Calm Calm -- 29.84 in1010.5 mb 0.00 in0.0 mm 0.00 in0.0 mm 0.00 in0.0 mm
03:38 AM 57.4°F14.1°C 54.5°F12.5°C 90% Calm Calm -- 29.84 in1010.5 mb 0.00 in0.0 mm 0.00 in0.0 mm 0.00 in0.0 mm
03:43 AM 57.4°F14.1°C 54.5°F12.5°C 90% Calm Calm -- 29.84 in1010.5 mb 0.00 in0.0 mm 0.00 in0.0 mm 0.00 in0.0 mm
03:48 AM 57.4°F14.1°C 54.5°F12.5°C 90% Calm Calm -- 29.84 in1010.5 mb 0.00 in0.0 mm 0.00 in0.0 mm 0.00 in0.0 mm
03:53 AM 57.6°F14.2°C 54.7°F12.6°C 90% Calm Calm -- 29.84 in1010.5 mb 0.00 in0.0 mm 0.00 in0.0 mm 0.00 in0.0 mm
03:58 AM 57.6°F14.2°C 54.7°F12.6°C 90% Calm Calm -- 29.85 in1010.8 mb 0.00 in0.0 mm 0.00 in0.0 mm 0.00 in0.0 mm
04:03 AM 57.6°F14.2°C 54.7°F12.6°C 90% Calm Calm -- 29.85 in1010.8 mb 0.00 in0.0 mm 0.00 in0.0 mm 0.00 in0.0 mm
04:08 AM 57.6°F14.2°C 54.7°F12.6°C 90% Calm Calm -- 29.85 in1010.8 mb 0.00 in0.0 mm 0.00 in0.0 mm 0.00 in0.0 mm
04:13 AM 57.6°F14.2°C 54.7°F12.6°C 90% Calm Calm -- 29.85 in1010.8 mb 0.00 in0.0 mm 0.00 in0.0 mm 0.00 in0.0 mm
04:18 AM 57.6°F14.2°C 54.7°F12.6°C 90% Calm Calm -- 29.85 in1010.8 mb 0.00 in0.0 mm 0.00 in0.0 mm 0.00 in0.0 mm
04:23 AM 57.4°F14.1°C 54.5°F12.5°C 90% Calm Calm -- 29.85 in1010.8 mb 0.00 in0.0 mm 0.00 in0.0 mm 0.00 in0.0 mm
04:28 AM 57.4°F14.1°C 54.5°F12.5°C 90% Calm Calm -- 29.85 in1010.8 mb 0.00 in0.0 mm 0.00 in0.0 mm 0.00 in0.0 mm
04:33 AM 57.2°F14.0°C 54.7°F12.6°C 91% Calm Calm -- 29.85 in1010.8 mb 0.00 in0.0 mm 0.00 in0.0 mm 0.00 in0.0 mm
04:38 AM 57.2°F14.0°C 54.7°F12.6°C 91% Calm Calm -- 29.85 in1010.8 mb 0.00 in0.0 mm 0.00 in0.0 mm 0.00 in0.0 mm
04:43 AM 57.0°F13.9°C 54.5°F12.5°C 91% Calm Calm -- 29.85 in1010.8 mb 0.00 in0.0 mm 0.00 in0.0 mm 0.00 in0.0 mm
04:48 AM 57.2°F14.0°C 54.7°F12.6°C 91% Calm Calm -- 29.85 in1010.8 mb 0.00 in0.0 mm 0.00 in0.0 mm 0.00 in0.0 mm
04:53 AM 57.2°F14.0°C 54.7°F12.6°C 91% Calm Calm -- 29.85 in1010.8 mb 0.00 in0.0 mm 0.00 in0.0 mm 0.00 in0.0 mm
04:58 AM 57.2°F14.0°C 54.7°F12.6°C 91% Calm Calm -- 29.85 in1010.8 mb 0.00 in0.0 mm 0.00 in0.0 mm 0.00 in0.0 mm
05:03 AM 57.2°F14.0°C 54.7°F12.6°C 91% Calm Calm -- 29.86 in1011.2 mb 0.00 in0.0 mm 0.00 in0.0 mm 0.00 in0.0 mm
05:08 AM 57.0°F13.9°C 54.5°F12.5°C 91% Calm Calm -- 29.86 in1011.2 mb 0.00 in0.0 mm 0.00 in0.0 mm 0.00 in0.0 mm
05:13 AM 57.4°F14.1°C 54.9°F12.7°C 91% Calm Calm -- 29.85 in1010.8 mb 0.00 in0.0 mm 0.00 in0.0 mm 0.00 in0.0 mm
05:18 AM 57.4°F14.1°C 54.9°F12.7°C 91% Calm Calm -- 29.86 in1011.2 mb 0.00 in0.0 mm 0.00 in0.0 mm 0.00 in0.0 mm
05:23 AM 57.4°F14.1°C 54.9°F12.7°C 91% Calm Calm -- 29.86 in1011.2 mb 0.00 in0.0 mm 0.00 in0.0 mm 0.00 in0.0 mm
05:28 AM 57.2°F14.0°C 54.7°F12.6°C 91% Calm Calm -- 29.86 in1011.2 mb 0.00 in0.0 mm 0.00 in0.0 mm 0.00 in0.0 mm
05:33 AM 57.4°F14.1°C 54.9°F12.7°C 91% Calm Calm -- 29.86 in1011.2 mb 0.00 in0.0 mm 0.00 in0.0 mm 0.00 in0.0 mm
05:38 AM 57.4°F14.1°C 55.0°F12.8°C 92% Calm Calm -- 29.86 in1011.2 mb 0.00 in0.0 mm 0.00 in0.0 mm 0.00 in0.0 mm
05:43 AM 57.6°F14.2°C 55.2°F12.9°C 92% Calm Calm -- 29.86 in1011.2 mb 0.00 in0.0 mm 0.00 in0.0 mm 0.00 in0.0 mm
05:48 AM 57.6°F14.2°C 55.2°F12.9°C 92% Calm Calm -- 29.86 in1011.2 mb 0.00 in0.0 mm 0.00 in0.0 mm 0.00 in0.0 mm
05:53 AM 57.7°F14.3°C 55.4°F13.0°C 92% Calm Calm -- 29.86 in1011.2 mb 0.00 in0.0 mm 0.00 in0.0 mm 0.00 in0.0 mm
05:58 AM 57.7°F14.3°C 55.4°F13.0°C 92% Calm Calm -- 29.86 in1011.2 mb 0.01 in0.3 mm 0.12 in3.0 mm 0.01 in0.3 mm
06:03 AM 57.9°F14.4°C 55.6°F13.1°C 92% Calm Calm -- 29.87 in1011.5 mb 0.03 in0.8 mm 0.02 in0.5 mm 0.03 in0.8 mm
06:08 AM 57.9°F14.4°C 55.6°F13.1°C 92% Calm Calm -- 29.87 in1011.5 mb 0.04 in1.0 mm 0.12 in3.0 mm 0.04 in1.0 mm
06:13 AM 57.9°F14.4°C 55.6°F13.1°C 92% Calm Calm -- 29.87 in1011.5 mb 0.04 in1.0 mm 0.00 in0.0 mm 0.04 in1.0 mm
06:18 AM 58.1°F14.5°C 55.8°F13.2°C 92% Calm Calm -- 29.87 in1011.5 mb 0.04 in1.0 mm 0.00 in0.0 mm 0.04 in1.0 mm
06:23 AM 58.3°F14.6°C 56.3°F13.5°C 93% Calm Calm -- 29.88 in1011.9 mb 0.04 in1.0 mm 0.00 in0.0 mm 0.04 in1.0 mm
06:28 AM 58.5°F14.7°C 56.5°F13.6°C 93% Calm Calm -- 29.88 in1011.9 mb 0.04 in1.0 mm 0.00 in0.0 mm 0.04 in1.0 mm
06:33 AM 58.5°F14.7°C 56.5°F13.6°C 93% Calm Calm -- 29.88 in1011.9 mb 0.04 in1.0 mm 0.00 in0.0 mm 0.04 in1.0 mm
06:38 AM 58.6°F14.8°C 56.7°F13.7°C 93% Calm Calm -- 29.88 in1011.9 mb 0.04 in1.0 mm 0.00 in0.0 mm 0.04 in1.0 mm
06:43 AM 58.6°F14.8°C 56.7°F13.7°C 93% Calm Calm -- 29.88 in1011.9 mb 0.04 in1.0 mm 0.00 in0.0 mm 0.04 in1.0 mm
06:48 AM 58.6°F14.8°C 56.7°F13.7°C 93% Calm Calm -- 29.88 in1011.9 mb 0.04 in1.0 mm 0.00 in0.0 mm 0.04 in1.0 mm
06:53 AM 58.8°F14.9°C 56.8°F13.8°C 93% Calm Calm -- 29.88 in1011.9 mb 0.04 in1.0 mm 0.00 in0.0 mm 0.04 in1.0 mm
06:58 AM 58.8°F14.9°C 56.8°F13.8°C 93% Calm Calm -- 29.88 in1011.9 mb 0.03 in0.8 mm 0.00 in0.0 mm 0.04 in1.0 mm
07:03 AM 59.0°F15.0°C 57.0°F13.9°C 93% Calm Calm -- 29.88 in1011.9 mb 0.01 in0.3 mm 0.00 in0.0 mm 0.04 in1.0 mm
07:08 AM 59.2°F15.1°C 57.2°F14.0°C 93% Calm Calm -- 29.89 in1012.2 mb 0.00 in0.0 mm 0.00 in0.0 mm 0.04 in1.0 mm
07:13 AM 59.2°F15.1°C 57.2°F14.0°C 93% Calm Calm -- 29.89 in1012.2 mb 0.00 in0.0 mm 0.00 in0.0 mm 0.04 in1.0 mm
07:18 AM 59.4°F15.2°C 57.4°F14.1°C 93% Calm Calm -- 29.88 in1011.9 mb 0.00 in0.0 mm 0.00 in0.0 mm 0.04 in1.0 mm
07:23 AM 59.4°F15.2°C 57.4°F14.1°C 93% Calm Calm -- 29.88 in1011.9 mb 0.00 in0.0 mm 0.00 in0.0 mm 0.04 in1.0 mm
07:28 AM 59.4°F15.2°C 57.4°F14.1°C 93% Calm Calm -- 29.89 in1012.2 mb 0.00 in0.0 mm 0.00 in0.0 mm 0.04 in1.0 mm
07:33 AM 59.4°F15.2°C 57.4°F14.1°C 93% Calm Calm -- 29.89 in1012.2 mb 0.00 in0.0 mm 0.00 in0.0 mm 0.04 in1.0 mm
07:38 AM 59.4°F15.2°C 57.4°F14.1°C 93% Calm Calm -- 29.89 in1012.2 mb 0.00 in0.0 mm 0.00 in0.0 mm 0.04 in1.0 mm
07:43 AM 59.4°F15.2°C 57.4°F14.1°C 93% Calm Calm -- 29.88 in1011.9 mb 0.00 in0.0 mm 0.00 in0.0 mm 0.04 in1.0 mm
07:48 AM 59.2°F15.1°C 57.2°F14.0°C 93% Calm Calm -- 29.89 in1012.2 mb 0.00 in0.0 mm 0.00 in0.0 mm 0.04 in1.0 mm
07:53 AM 59.2°F15.1°C 57.2°F14.0°C 93% Calm Calm -- 29.88 in1011.9 mb 0.01 in0.3 mm 0.12 in3.0 mm 0.05 in1.3 mm
07:58 AM 59.2°F15.1°C 57.2°F14.0°C 93% Calm Calm -- 29.88 in1011.9 mb 0.01 in0.3 mm 0.00 in0.0 mm 0.05 in1.3 mm
08:03 AM 59.0°F15.0°C 57.0°F13.9°C 93% Calm Calm -- 29.88 in1011.9 mb 0.01 in0.3 mm 0.00 in0.0 mm 0.05 in1.3 mm
08:08 AM 59.0°F15.0°C 57.0°F13.9°C 93% Calm Calm -- 29.88 in1011.9 mb 0.01 in0.3 mm 0.00 in0.0 mm 0.05 in1.3 mm
08:13 AM 59.0°F15.0°C 57.0°F13.9°C 93% Calm Calm -- 29.89 in1012.2 mb 0.01 in0.3 mm 0.00 in0.0 mm 0.05 in1.3 mm
08:18 AM 59.0°F15.0°C 57.0°F13.9°C 93% Calm Calm -- 29.89 in1012.2 mb 0.01 in0.3 mm 0.00 in0.0 mm 0.05 in1.3 mm
08:23 AM 59.0°F15.0°C 57.0°F13.9°C 93% Calm Calm -- 29.89 in1012.2 mb 0.01 in0.3 mm 0.00 in0.0 mm 0.05 in1.3 mm
08:28 AM 58.8°F14.9°C 56.8°F13.8°C 93% Calm Calm -- 29.89 in1012.2 mb 0.01 in0.3 mm 0.00 in0.0 mm 0.05 in1.3 mm
08:33 AM 58.8°F14.9°C 56.8°F13.8°C 93% Calm Calm -- 29.89 in1012.2 mb 0.01 in0.3 mm 0.00 in0.0 mm 0.05 in1.3 mm
08:38 AM 58.8°F14.9°C 56.8°F13.8°C 93% Calm Calm 1.1 mph1.8 kmh 29.89 in1012.2 mb 0.01 in0.3 mm 0.00 in0.0 mm 0.05 in1.3 mm
08:43 AM 58.6°F14.8°C 56.7°F13.7°C 93% Calm Calm 1.1 mph1.8 kmh 29.89 in1012.2 mb 0.01 in0.3 mm 0.00 in0.0 mm 0.05 in1.3 mm
08:48 AM 58.6°F14.8°C 56.7°F13.7°C 93% Calm Calm -- 29.88 in1011.9 mb 0.03 in0.8 mm 0.24 in6.1 mm 0.07 in1.8 mm
08:53 AM 58.6°F14.8°C 56.7°F13.7°C 93% Calm Calm -- 29.88 in1011.9 mb 0.03 in0.8 mm 0.00 in0.0 mm 0.08 in2.0 mm
08:58 AM 58.6°F14.8°C 56.7°F13.7°C 93% Calm Calm -- 29.88 in1011.9 mb 0.04 in1.0 mm 0.12 in3.0 mm 0.09 in2.3 mm
09:03 AM 58.6°F14.8°C 56.7°F13.7°C 93% Calm Calm -- 29.88 in1011.9 mb 0.04 in1.0 mm 0.00 in0.0 mm 0.09 in2.3 mm
09:08 AM 58.6°F14.8°C 56.8°F13.8°C 94% Calm Calm -- 29.89 in1012.2 mb 0.04 in1.0 mm 0.00 in0.0 mm 0.09 in2.3 mm
09:13 AM 58.8°F14.9°C 57.0°F13.9°C 94% Calm Calm -- 29.89 in1012.2 mb 0.05 in1.3 mm 0.12 in3.0 mm 0.10 in2.5 mm
09:18 AM 58.8°F14.9°C 57.0°F13.9°C 94% Calm Calm -- 29.89 in1012.2 mb 0.05 in1.3 mm 0.00 in0.0 mm 0.10 in2.5 mm
09:23 AM 58.8°F14.9°C 57.0°F13.9°C 94% Calm Calm -- 29.89 in1012.2 mb 0.05 in1.3 mm 0.00 in0.0 mm 0.10 in2.5 mm
09:28 AM 58.8°F14.9°C 57.0°F13.9°C 94% Calm Calm -- 29.89 in1012.2 mb 0.05 in1.3 mm 0.00 in0.0 mm 0.10 in2.5 mm
09:33 AM 59.0°F15.0°C 57.2°F14.0°C 94% Calm Calm -- 29.89 in1012.2 mb 0.05 in1.3 mm 0.00 in0.0 mm 0.10 in2.5 mm
09:38 AM 59.0°F15.0°C 57.2°F14.0°C 94% Calm Calm -- 29.90 in1012.5 mb 0.06 in1.5 mm 0.12 in3.0 mm 0.11 in2.8 mm
09:43 AM 59.0°F15.0°C 57.2°F14.0°C 94% Calm Calm -- 29.89 in1012.2 mb 0.08 in2.0 mm 0.24 in6.1 mm 0.13 in3.3 mm
09:48 AM 59.0°F15.0°C 57.2°F14.0°C 94% Calm Calm 1.1 mph1.8 kmh 29.88 in1011.9 mb 0.06 in1.5 mm 0.00 in0.0 mm 0.13 in3.3 mm
09:53 AM 59.0°F15.0°C 57.2°F14.0°C 94% Calm Calm -- 29.89 in1012.2 mb 0.05 in1.3 mm 0.00 in0.0 mm 0.13 in3.3 mm
09:58 AM 59.2°F15.1°C 57.4°F14.1°C 94% Calm Calm -- 29.89 in1012.2 mb 0.04 in1.0 mm 0.00 in0.0 mm 0.13 in3.3 mm
10:03 AM 59.2°F15.1°C 57.4°F14.1°C 94% Calm Calm 1.1 mph1.8 kmh 29.88 in1011.9 mb 0.04 in1.0 mm 0.00 in0.0 mm 0.13 in3.3 mm
10:08 AM 58.8°F14.9°C 56.8°F13.8°C 93% Calm Calm 1.1 mph1.8 kmh 29.88 in1011.9 mb 0.04 in1.0 mm 0.00 in0.0 mm 0.13 in3.3 mm
10:13 AM 58.6°F14.8°C 56.7°F13.7°C 93% Calm Calm -- 29.88 in1011.9 mb 0.04 in1.0 mm 0.00 in0.0 mm 0.14 in3.6 mm
10:18 AM 58.6°F14.8°C 56.8°F13.8°C 94% Calm Calm -- 29.88 in1011.9 mb 0.04 in1.0 mm 0.00 in0.0 mm 0.14 in3.6 mm
10:23 AM 59.2°F15.1°C 57.4°F14.1°C 94% Calm Calm -- 29.88 in1011.9 mb 0.04 in1.0 mm 0.00 in0.0 mm 0.14 in3.6 mm
10:28 AM 59.4°F15.2°C 57.6°F14.2°C 94% Calm Calm -- 29.88 in1011.9 mb 0.04 in1.0 mm 0.00 in0.0 mm 0.14 in3.6 mm
10:33 AM 59.7°F15.4°C 57.9°F14.4°C 94% Calm Calm -- 29.88 in1011.9 mb 0.04 in1.0 mm 0.00 in0.0 mm 0.14 in3.6 mm
10:38 AM 60.1°F15.6°C 58.3°F14.6°C 94% Calm Calm 1.1 mph1.8 kmh 29.88 in1011.9 mb 0.03 in0.8 mm 0.00 in0.0 mm 0.14 in3.6 mm
10:43 AM 60.6°F15.9°C 58.8°F14.9°C 94% 0.2 mph SE0.3 kmh SE 2.0 mph3.2 kmh 29.88 in1011.9 mb 0.01 in0.3 mm 0.00 in0.0 mm 0.14 in3.6 mm
10:48 AM 61.0°F16.1°C 59.0°F15.0°C 93% Calm Calm 2.0 mph3.2 kmh 29.88 in1011.9 mb 0.01 in0.3 mm 0.00 in0.0 mm 0.14 in3.6 mm
10:53 AM 61.3°F16.3°C 59.5°F15.3°C 94% Calm Calm 1.1 mph1.8 kmh 29.88 in1011.9 mb 0.01 in0.3 mm 0.00 in0.0 mm 0.14 in3.6 mm
10:58 AM 61.7°F16.5°C 59.4°F15.2°C 92% 0.4 mph W0.6 kmh W 2.0 mph3.2 kmh 29.88 in1011.9 mb 0.01 in0.3 mm 0.00 in0.0 mm 0.14 in3.6 mm
11:03 AM 61.7°F16.5°C 59.4°F15.2°C 92% 0.9 mph WNW1.4 kmh WNW 3.1 mph5.0 kmh 29.88 in1011.9 mb 0.01 in0.3 mm 0.00 in0.0 mm 0.14 in3.6 mm
11:08 AM 62.4°F16.9°C 60.4°F15.8°C 93% 1.6 mph WNW2.6 kmh WNW 5.4 mph8.7 kmh 29.87 in1011.5 mb 0.01 in0.3 mm 0.00 in0.0 mm 0.14 in3.6 mm
11:13 AM 62.8°F17.1°C 60.4°F15.8°C 92% 0.7 mph WNW1.1 kmh WNW 4.3 mph6.9 kmh 29.87 in1011.5 mb 0.00 in0.0 mm 0.00 in0.0 mm 0.14 in3.6 mm
11:18 AM 63.7°F17.6°C 60.6°F15.9°C 90% 2.9 mph WNW4.7 kmh WNW 7.4 mph11.9 kmh 29.87 in1011.5 mb 0.00 in0.0 mm 0.00 in0.0 mm 0.14 in3.6 mm
11:23 AM 63.9°F17.7°C 59.9°F15.5°C 87% 3.8 mph NW6.1 kmh NW 7.4 mph11.9 kmh 29.87 in1011.5 mb 0.00 in0.0 mm 0.00 in0.0 mm 0.14 in3.6 mm
11:28 AM 64.6°F18.1°C 60.6°F15.9°C 87% 1.8 mph NW2.9 kmh NW 4.3 mph6.9 kmh 29.87 in1011.5 mb 0.00 in0.0 mm 0.00 in0.0 mm 0.14 in3.6 mm
11:33 AM 65.1°F18.4°C 60.4°F15.8°C 85% 4.0 mph WSW6.4 kmh WSW 7.4 mph11.9 kmh 29.87 in1011.5 mb 0.00 in0.0 mm 0.00 in0.0 mm 0.14 in3.6 mm
11:38 AM 65.1°F18.4°C 60.1°F15.6°C 84% 3.4 mph NW5.5 kmh NW 6.3 mph10.1 kmh 29.87 in1011.5 mb 0.00 in0.0 mm 0.00 in0.0 mm 0.14 in3.6 mm
11:43 AM 64.9°F18.3°C 59.9°F15.5°C 84% 4.0 mph NNW6.4 kmh NNW 6.3 mph10.1 kmh 29.86 in1011.2 mb 0.00 in0.0 mm 0.00 in0.0 mm 0.14 in3.6 mm
11:48 AM 65.1°F18.4°C 60.4°F15.8°C 85% 0.7 mph WSW1.1 kmh WSW 5.4 mph8.7 kmh 29.86 in1011.2 mb 0.00 in0.0 mm 0.00 in0.0 mm 0.14 in3.6 mm
11:53 AM 65.7°F18.7°C 60.4°F15.8°C 83% 4.3 mph NW6.9 kmh NW 7.4 mph11.9 kmh 29.86 in1011.2 mb 0.00 in0.0 mm 0.00 in0.0 mm 0.14 in3.6 mm
11:58 AM 65.8°F18.8°C 60.3°F15.7°C 82% 2.7 mph W4.3 kmh W 8.5 mph13.7 kmh 29.86 in1011.2 mb 0.00 in0.0 mm 0.00 in0.0 mm 0.14 in3.6 mm
12:03 PM 66.0°F18.9°C 60.1°F15.6°C 81% 3.4 mph WNW5.5 kmh WNW 8.5 mph13.7 kmh 29.85 in1010.8 mb 0.00 in0.0 mm 0.00 in0.0 mm 0.14 in3.6 mm
12:08 PM 66.2°F19.0°C 60.3°F15.7°C 81% 4.3 mph N6.9 kmh N 8.5 mph13.7 kmh 29.85 in1010.8 mb 0.00 in0.0 mm 0.00 in0.0 mm 0.14 in3.6 mm
12:13 PM 66.4°F19.1°C 60.1°F15.6°C 80% 6.0 mph NW9.7 kmh NW 10.5 mph16.9 kmh 29.85 in1010.8 mb 0.00 in0.0 mm 0.00 in0.0 mm 0.14 in3.6 mm
12:18 PM 66.2°F19.0°C 59.5°F15.3°C 79% 4.5 mph NW7.2 kmh NW 8.5 mph13.7 kmh 29.85 in1010.8 mb 0.00 in0.0 mm 0.00 in0.0 mm 0.14 in3.6 mm
12:23 PM 66.7°F19.3°C 61.0°F16.1°C 82% 2.0 mph WNW3.2 kmh WNW 8.5 mph13.7 kmh 29.85 in1010.8 mb 0.00 in0.0 mm 0.00 in0.0 mm 0.14 in3.6 mm
12:28 PM 67.3°F19.6°C 60.6°F15.9°C 79% 3.6 mph WSW5.8 kmh WSW 9.6 mph15.4 kmh 29.85 in1010.8 mb 0.00 in0.0 mm 0.00 in0.0 mm 0.14 in3.6 mm
12:33 PM 67.1°F19.5°C 60.1°F15.6°C 78% 5.1 mph WNW8.2 kmh WNW 8.5 mph13.7 kmh 29.85 in1010.8 mb 0.00 in0.0 mm 0.00 in0.0 mm 0.14 in3.6 mm
12:38 PM 66.7°F19.3°C 59.7°F15.4°C 78% 2.2 mph NW3.5 kmh NW 7.4 mph11.9 kmh 29.84 in1010.5 mb 0.00 in0.0 mm 0.00 in0.0 mm 0.14 in3.6 mm
12:43 PM 66.6°F19.2°C 59.5°F15.3°C 78% 4.9 mph W7.9 kmh W 9.6 mph15.4 kmh 29.84 in1010.5 mb 0.00 in0.0 mm 0.00 in0.0 mm 0.14 in3.6 mm
12:48 PM 66.4°F19.1°C 59.7°F15.4°C 79% 5.8 mph WNW9.3 kmh WNW 11.6 mph18.7 kmh 29.84 in1010.5 mb 0.00 in0.0 mm 0.00 in0.0 mm 0.14 in3.6 mm
12:53 PM 66.4°F19.1°C 60.1°F15.6°C 80% 1.6 mph WSW2.6 kmh WSW 5.4 mph8.7 kmh 29.84 in1010.5 mb 0.00 in0.0 mm 0.00 in0.0 mm 0.14 in3.6 mm
12:58 PM 66.9°F19.4°C 60.3°F15.7°C 79% 3.1 mph WNW5.0 kmh WNW 6.3 mph10.1 kmh 29.84 in1010.5 mb 0.00 in0.0 mm 0.00 in0.0 mm 0.14 in3.6 mm
01:03 PM 66.7°F19.3°C 59.4°F15.2°C 77% 3.1 mph WNW5.0 kmh WNW 6.3 mph10.1 kmh 29.84 in1010.5 mb 0.00 in0.0 mm 0.00 in0.0 mm 0.14 in3.6 mm
01:08 PM 66.6°F19.2°C 59.2°F15.1°C 77% 3.4 mph WNW5.5 kmh WNW 8.5 mph13.7 kmh 29.84 in1010.5 mb 0.00 in0.0 mm 0.00 in0.0 mm 0.14 in3.6 mm
01:13 PM 66.7°F19.3°C 59.7°F15.4°C 78% 4.7 mph WSW7.6 kmh WSW 8.5 mph13.7 kmh 29.83 in1010.2 mb 0.00 in0.0 mm 0.00 in0.0 mm 0.14 in3.6 mm
01:18 PM 67.5°F19.7°C 60.1°F15.6°C 77% 3.6 mph SW5.8 kmh SW 7.4 mph11.9 kmh 29.83 in1010.2 mb 0.00 in0.0 mm 0.00 in0.0 mm 0.14 in3.6 mm
01:23 PM 68.2°F20.1°C 60.6°F15.9°C 77% 3.4 mph NW5.5 kmh NW 8.5 mph13.7 kmh 29.83 in1010.2 mb 0.00 in0.0 mm 0.00 in0.0 mm 0.14 in3.6 mm
01:28 PM 68.2°F20.1°C 59.2°F15.1°C 73% 4.7 mph NW7.6 kmh NW 8.5 mph13.7 kmh 29.83 in1010.2 mb 0.00 in0.0 mm 0.00 in0.0 mm 0.14 in3.6 mm
01:33 PM 68.4°F20.2°C 59.7°F15.4°C 74% 3.6 mph NNW5.8 kmh NNW 11.6 mph18.7 kmh 29.83 in1010.2 mb 0.00 in0.0 mm 0.00 in0.0 mm 0.14 in3.6 mm
01:38 PM 68.5°F20.3°C 59.5°F15.3°C 73% 5.6 mph NNE9.0 kmh NNE 9.6 mph15.4 kmh 29.82 in1009.8 mb 0.00 in0.0 mm 0.00 in0.0 mm 0.14 in3.6 mm
01:43 PM 68.9°F20.5°C 59.5°F15.3°C 72% 5.1 mph WSW8.2 kmh WSW 7.4 mph11.9 kmh 29.82 in1009.8 mb 0.00 in0.0 mm 0.00 in0.0 mm 0.14 in3.6 mm
01:48 PM 68.9°F20.5°C 59.9°F15.5°C 73% 3.1 mph W5.0 kmh W 8.5 mph13.7 kmh 29.82 in1009.8 mb 0.00 in0.0 mm 0.00 in0.0 mm 0.14 in3.6 mm
01:53 PM 68.9°F20.5°C 59.2°F15.1°C 71% 5.1 mph S8.2 kmh S 11.6 mph18.7 kmh 29.81 in1009.5 mb 0.00 in0.0 mm 0.00 in0.0 mm 0.14 in3.6 mm
01:58 PM 68.7°F20.4°C 59.4°F15.2°C 72% 5.8 mph WSW9.3 kmh WSW 8.5 mph13.7 kmh 29.81 in1009.5 mb 0.00 in0.0 mm 0.00 in0.0 mm 0.14 in3.6 mm
02:03 PM 68.9°F20.5°C 58.6°F14.8°C 70% 3.6 mph W5.8 kmh W 10.5 mph16.9 kmh 29.81 in1009.5 mb 0.00 in0.0 mm 0.00 in0.0 mm 0.14 in3.6 mm
02:08 PM 68.9°F20.5°C 58.6°F14.8°C 70% 6.9 mph W11.1 kmh W 11.6 mph18.7 kmh 29.81 in1009.5 mb 0.00 in0.0 mm 0.00 in0.0 mm 0.14 in3.6 mm
02:13 PM 68.5°F20.3°C 58.3°F14.6°C 70% 5.4 mph SW8.7 kmh SW 13.9 mph22.4 kmh 29.81 in1009.5 mb 0.00 in0.0 mm 0.00 in0.0 mm 0.14 in3.6 mm
02:18 PM 69.1°F20.6°C 58.5°F14.7°C 69% 6.3 mph W10.1 kmh W 11.6 mph18.7 kmh 29.81 in1009.5 mb 0.00 in0.0 mm 0.00 in0.0 mm 0.14 in3.6 mm
02:23 PM 69.1°F20.6°C 58.1°F14.5°C 68% 6.5 mph W10.5 kmh W 10.5 mph16.9 kmh 29.80 in1009.1 mb 0.00 in0.0 mm 0.00 in0.0 mm 0.14 in3.6 mm
02:28 PM 69.1°F20.6°C 58.5°F14.7°C 69% 5.8 mph W9.3 kmh W 13.9 mph22.4 kmh 29.80 in1009.1 mb 0.00 in0.0 mm 0.00 in0.0 mm 0.14 in3.6 mm
02:33 PM 69.3°F20.7°C 59.0°F15.0°C 70% 6.0 mph W9.7 kmh W 11.6 mph18.7 kmh 29.80 in1009.1 mb 0.00 in0.0 mm 0.00 in0.0 mm 0.14 in3.6 mm
02:38 PM 69.6°F20.9°C 58.6°F14.8°C 68% 5.6 mph WSW9.0 kmh WSW 11.6 mph18.7 kmh 29.80 in1009.1 mb 0.00 in0.0 mm 0.00 in0.0 mm 0.14 in3.6 mm
02:43 PM 69.4°F20.8°C 58.5°F14.7°C 68% 6.3 mph W10.1 kmh W 12.8 mph20.6 kmh 29.81 in1009.5 mb 0.00 in0.0 mm 0.00 in0.0 mm 0.14 in3.6 mm
02:48 PM 70.0°F21.1°C 59.0°F15.0°C 68% 2.9 mph WNW4.7 kmh WNW 9.6 mph15.4 kmh 29.81 in1009.5 mb 0.00 in0.0 mm 0.00 in0.0 mm 0.14 in3.6 mm
02:53 PM 70.3°F21.3°C 58.5°F14.7°C 66% 4.0 mph NW6.4 kmh NW 9.6 mph15.4 kmh 29.81 in1009.5 mb 0.00 in0.0 mm 0.00 in0.0 mm 0.14 in3.6 mm
02:58 PM 70.2°F21.2°C 57.9°F14.4°C 65% 5.6 mph W9.0 kmh W 9.6 mph15.4 kmh 29.80 in1009.1 mb 0.00 in0.0 mm 0.00 in0.0 mm 0.14 in3.6 mm
03:03 PM 69.4°F20.8°C 57.2°F14.0°C 65% 5.6 mph WSW9.0 kmh WSW 11.6 mph18.7 kmh 29.81 in1009.5 mb 0.00 in0.0 mm 0.00 in0.0 mm 0.14 in3.6 mm
03:08 PM 68.5°F20.3°C 56.3°F13.5°C 65% 6.5 mph W10.5 kmh W 13.9 mph22.4 kmh 29.81 in1009.5 mb 0.00 in0.0 mm 0.00 in0.0 mm 0.14 in3.6 mm
03:13 PM 67.8°F19.9°C 56.5°F13.6°C 67% 4.9 mph NW7.9 kmh NW 11.6 mph18.7 kmh 29.81 in1009.5 mb 0.00 in0.0 mm 0.00 in0.0 mm 0.14 in3.6 mm
03:18 PM 67.3°F19.6°C 56.3°F13.5°C 68% 6.0 mph NW9.7 kmh NW 10.5 mph16.9 kmh 29.81 in1009.5 mb 0.00 in0.0 mm 0.00 in0.0 mm 0.14 in3.6 mm
03:23 PM 67.3°F19.6°C 56.8°F13.8°C 69% 5.8 mph WNW9.3 kmh WNW 9.6 mph15.4 kmh 29.81 in1009.5 mb 0.00 in0.0 mm 0.00 in0.0 mm 0.14 in3.6 mm
03:28 PM 67.6°F19.8°C 57.0°F13.9°C 69% 5.4 mph NW8.7 kmh NW 9.6 mph15.4 kmh 29.81 in1009.5 mb 0.00 in0.0 mm 0.00 in0.0 mm 0.14 in3.6 mm
03:33 PM 67.5°F19.7°C 56.5°F13.6°C 68% 6.5 mph WSW10.5 kmh WSW 11.6 mph18.7 kmh 29.81 in1009.5 mb 0.00 in0.0 mm 0.00 in0.0 mm 0.14 in3.6 mm
03:38 PM 67.8°F19.9°C 56.8°F13.8°C 68% 4.7 mph SW7.6 kmh SW 11.6 mph18.7 kmh 29.81 in1009.5 mb 0.00 in0.0 mm 0.00 in0.0 mm 0.14 in3.6 mm
03:43 PM 68.2°F20.1°C 56.8°F13.8°C 67% 4.5 mph W7.2 kmh W 9.6 mph15.4 kmh 29.81 in1009.5 mb 0.00 in0.0 mm 0.00 in0.0 mm 0.14 in3.6 mm
03:48 PM 67.8°F19.9°C 56.5°F13.6°C 67% 5.6 mph NW9.0 kmh NW 9.6 mph15.4 kmh 29.81 in1009.5 mb 0.00 in0.0 mm 0.00 in0.0 mm 0.14 in3.6 mm
03:53 PM 68.4°F20.2°C 57.4°F14.1°C 68% 4.5 mph NNW7.2 kmh NNW 8.5 mph13.7 kmh 29.81 in1009.5 mb 0.00 in0.0 mm 0.00 in0.0 mm 0.14 in3.6 mm
03:58 PM 68.5°F20.3°C 56.7°F13.7°C 66% 5.6 mph WNW9.0 kmh WNW 9.6 mph15.4 kmh 29.81 in1009.5 mb 0.00 in0.0 mm 0.00 in0.0 mm 0.14 in3.6 mm
04:03 PM 68.4°F20.2°C 56.5°F13.6°C 66% 4.0 mph WNW6.4 kmh WNW 10.5 mph16.9 kmh 29.81 in1009.5 mb 0.00 in0.0 mm 0.00 in0.0 mm 0.14 in3.6 mm
04:08 PM 68.5°F20.3°C 56.7°F13.7°C 66% 4.0 mph WNW6.4 kmh WNW 6.3 mph10.1 kmh 29.82 in1009.8 mb 0.00 in0.0 mm 0.00 in0.0 mm 0.14 in3.6 mm
04:13 PM 68.4°F20.2°C 56.5°F13.6°C 66% 4.0 mph WSW6.4 kmh WSW 9.6 mph15.4 kmh 29.82 in1009.8 mb 0.00 in0.0 mm 0.00 in0.0 mm 0.14 in3.6 mm
04:18 PM 68.5°F20.3°C 57.2°F14.0°C 67% 3.4 mph WNW5.5 kmh WNW 8.5 mph13.7 kmh 29.82 in1009.8 mb 0.00 in0.0 mm 0.00 in0.0 mm 0.14 in3.6 mm
04:23 PM 68.0°F20.0°C 56.7°F13.7°C 67% 2.5 mph WSW4.0 kmh WSW 9.6 mph15.4 kmh 29.82 in1009.8 mb 0.00 in0.0 mm 0.00 in0.0 mm 0.14 in3.6 mm
04:28 PM 67.6°F19.8°C 56.3°F13.5°C 67% 2.2 mph NW3.5 kmh NW 7.4 mph11.9 kmh 29.82 in1009.8 mb 0.00 in0.0 mm 0.00 in0.0 mm 0.14 in3.6 mm
04:33 PM 67.3°F19.6°C 55.6°F13.1°C 66% 3.8 mph NW6.1 kmh NW 7.4 mph11.9 kmh 29.82 in1009.8 mb 0.00 in0.0 mm 0.00 in0.0 mm 0.14 in3.6 mm
04:38 PM 66.7°F19.3°C 55.4°F13.0°C 67% 3.8 mph NW6.1 kmh NW 8.5 mph13.7 kmh 29.82 in1009.8 mb 0.00 in0.0 mm 0.00 in0.0 mm 0.14 in3.6 mm
04:43 PM 66.6°F19.2°C 55.6°F13.1°C 68% 3.1 mph WNW5.0 kmh WNW 7.4 mph11.9 kmh 29.82 in1009.8 mb 0.00 in0.0 mm 0.00 in0.0 mm 0.14 in3.6 mm
04:48 PM 66.0°F18.9°C 54.7°F12.6°C 67% 2.9 mph NW4.7 kmh NW 7.4 mph11.9 kmh 29.82 in1009.8 mb 0.00 in0.0 mm 0.00 in0.0 mm 0.14 in3.6 mm
04:53 PM 65.8°F18.8°C 54.5°F12.5°C 67% 2.2 mph NW3.5 kmh NW 7.4 mph11.9 kmh 29.82 in1009.8 mb 0.00 in0.0 mm 0.00 in0.0 mm 0.14 in3.6 mm
04:58 PM 65.8°F18.8°C 55.8°F13.2°C 70% 2.7 mph WNW4.3 kmh WNW 7.4 mph11.9 kmh 29.82 in1009.8 mb 0.00 in0.0 mm 0.00 in0.0 mm 0.14 in3.6 mm
05:03 PM 65.8°F18.8°C 56.5°F13.6°C 72% 0.2 mph WSW0.3 kmh WSW 3.1 mph5.0 kmh 29.82 in1009.8 mb 0.00 in0.0 mm 0.00 in0.0 mm 0.14 in3.6 mm
05:08 PM 65.7°F18.7°C 56.3°F13.5°C 72% 1.3 mph W2.1 kmh W 3.1 mph5.0 kmh 29.82 in1009.8 mb 0.00 in0.0 mm 0.00 in0.0 mm 0.14 in3.6 mm
05:13 PM 65.1°F18.4°C 56.7°F13.7°C 74% 2.0 mph SW3.2 kmh SW 7.4 mph11.9 kmh 29.82 in1009.8 mb 0.00 in0.0 mm 0.00 in0.0 mm 0.14 in3.6 mm
05:18 PM 64.8°F18.2°C 56.7°F13.7°C 75% 2.9 mph W4.7 kmh W 5.4 mph8.7 kmh 29.82 in1009.8 mb 0.00 in0.0 mm 0.00 in0.0 mm 0.14 in3.6 mm
05:23 PM 64.6°F18.1°C 56.8°F13.8°C 76% 1.1 mph WSW1.8 kmh WSW 4.3 mph6.9 kmh 29.83 in1010.2 mb 0.00 in0.0 mm 0.00 in0.0 mm 0.14 in3.6 mm
05:28 PM 64.2°F17.9°C 56.8°F13.8°C 77% 3.6 mph WNW5.8 kmh WNW 7.4 mph11.9 kmh 29.83 in1010.2 mb 0.00 in0.0 mm 0.00 in0.0 mm 0.14 in3.6 mm
05:33 PM 63.9°F17.7°C 57.2°F14.0°C 79% 2.5 mph SW4.0 kmh SW 8.5 mph13.7 kmh 29.83 in1010.2 mb 0.00 in0.0 mm 0.00 in0.0 mm 0.14 in3.6 mm
05:38 PM 63.7°F17.6°C 57.4°F14.1°C 80% 3.6 mph W5.8 kmh W 7.4 mph11.9 kmh 29.83 in1010.2 mb 0.00 in0.0 mm 0.00 in0.0 mm 0.14 in3.6 mm
05:43 PM 63.5°F17.5°C 57.2°F14.0°C 80% 3.1 mph SW5.0 kmh SW 6.3 mph10.1 kmh 29.83 in1010.2 mb 0.00 in0.0 mm 0.00 in0.0 mm 0.14 in3.6 mm
05:48 PM 63.3°F17.4°C 57.4°F14.1°C 81% 2.9 mph NW4.7 kmh NW 6.3 mph10.1 kmh 29.83 in1010.2 mb 0.00 in0.0 mm 0.00 in0.0 mm 0.14 in3.6 mm
05:53 PM 63.1°F17.3°C 57.2°F14.0°C 81% 2.0 mph NW3.2 kmh NW 6.3 mph10.1 kmh 29.83 in1010.2 mb 0.00 in0.0 mm 0.00 in0.0 mm 0.14 in3.6 mm
05:58 PM 63.1°F17.3°C 57.2°F14.0°C 81% 1.8 mph WSW2.9 kmh WSW 4.3 mph6.9 kmh 29.83 in1010.2 mb 0.00 in0.0 mm 0.00 in0.0 mm 0.14 in3.6 mm
06:03 PM 63.0°F17.2°C 57.0°F13.9°C 81% 2.0 mph NW3.2 kmh NW 7.4 mph11.9 kmh 29.83 in1010.2 mb 0.00 in0.0 mm 0.00 in0.0 mm 0.14 in3.6 mm
06:08 PM 63.0°F17.2°C 57.4°F14.1°C 82% Calm Calm 3.1 mph5.0 kmh 29.84 in1010.5 mb 0.00 in0.0 mm 0.00 in0.0 mm 0.14 in3.6 mm
06:13 PM 63.0°F17.2°C 57.4°F14.1°C 82% 0.9 mph NNW1.4 kmh NNW 2.0 mph3.2 kmh 29.84 in1010.5 mb 0.00 in0.0 mm 0.00 in0.0 mm 0.14 in3.6 mm
06:18 PM 62.8°F17.1°C 57.2°F14.0°C 82% 0.4 mph NW0.6 kmh NW 3.1 mph5.0 kmh 29.84 in1010.5 mb 0.00 in0.0 mm 0.00 in0.0 mm 0.14 in3.6 mm
06:23 PM 62.6°F17.0°C 57.4°F14.1°C 83% 0.7 mph NW1.1 kmh NW 2.0 mph3.2 kmh 29.84 in1010.5 mb 0.00 in0.0 mm 0.00 in0.0 mm 0.14 in3.6 mm
06:28 PM 62.4°F16.9°C 57.2°F14.0°C 83% 0.4 mph WSW0.6 kmh WSW 1.1 mph1.8 kmh 29.85 in1010.8 mb 0.00 in0.0 mm 0.00 in0.0 mm 0.14 in3.6 mm
06:33 PM 62.4°F16.9°C 57.2°F14.0°C 83% 1.6 mph NW2.6 kmh NW 2.0 mph3.2 kmh 29.85 in1010.8 mb 0.00 in0.0 mm 0.00 in0.0 mm 0.14 in3.6 mm
06:38 PM 62.2°F16.8°C 57.0°F13.9°C 83% 0.9 mph NW1.4 kmh NW 2.0 mph3.2 kmh 29.85 in1010.8 mb 0.00 in0.0 mm 0.00 in0.0 mm 0.14 in3.6 mm
06:43 PM 62.2°F16.8°C 57.4°F14.1°C 84% Calm Calm 3.1 mph5.0 kmh 29.85 in1010.8 mb 0.00 in0.0 mm 0.00 in0.0 mm 0.14 in3.6 mm
06:48 PM 62.2°F16.8°C 57.4°F14.1°C 84% 0.4 mph WNW0.6 kmh WNW 2.0 mph3.2 kmh 29.85 in1010.8 mb 0.00 in0.0 mm 0.00 in0.0 mm 0.14 in3.6 mm
06:53 PM 62.1°F16.7°C 57.2°F14.0°C 84% 0.4 mph WNW0.6 kmh WNW 2.0 mph3.2 kmh 29.85 in1010.8 mb 0.00 in0.0 mm 0.00 in0.0 mm 0.14 in3.6 mm
06:58 PM 62.1°F16.7°C 57.2°F14.0°C 84% 1.1 mph WSW1.8 kmh WSW 3.1 mph5.0 kmh 29.85 in1010.8 mb 0.00 in0.0 mm 0.00 in0.0 mm 0.14 in3.6 mm
07:03 PM 61.9°F16.6°C 57.4°F14.1°C 85% 0.9 mph WNW1.4 kmh WNW 3.1 mph5.0 kmh 29.85 in1010.8 mb 0.00 in0.0 mm 0.00 in0.0 mm 0.14 in3.6 mm
07:08 PM 61.9°F16.6°C 57.4°F14.1°C 85% Calm Calm 1.1 mph1.8 kmh 29.85 in1010.8 mb 0.00 in0.0 mm 0.00 in0.0 mm 0.14 in3.6 mm
07:13 PM 61.7°F16.5°C 57.2°F14.0°C 85% 0.2 mph NW0.3 kmh NW 1.1 mph1.8 kmh 29.85 in1010.8 mb 0.00 in0.0 mm 0.00 in0.0 mm 0.14 in3.6 mm
07:18 PM 61.5°F16.4°C 57.4°F14.1°C 86% Calm Calm 1.1 mph1.8 kmh 29.85 in1010.8 mb 0.00 in0.0 mm 0.00 in0.0 mm 0.14 in3.6 mm
07:23 PM 61.5°F16.4°C 57.4°F14.1°C 86% Calm Calm 1.1 mph1.8 kmh 29.86 in1011.2 mb 0.00 in0.0 mm 0.00 in0.0 mm 0.14 in3.6 mm
07:28 PM 61.5°F16.4°C 57.4°F14.1°C 86% Calm Calm 2.0 mph3.2 kmh 29.86 in1011.2 mb 0.00 in0.0 mm 0.00 in0.0 mm 0.14 in3.6 mm
07:33 PM 61.2°F16.2°C 57.0°F13.9°C 86% Calm Calm -- 29.86 in1011.2 mb 0.00 in0.0 mm 0.00 in0.0 mm 0.14 in3.6 mm
07:38 PM 61.0°F16.1°C 56.8°F13.8°C 86% Calm Calm -- 29.86 in1011.2 mb 0.00 in0.0 mm 0.00 in0.0 mm 0.14 in3.6 mm
07:43 PM 60.8°F16.0°C 56.8°F13.8°C 87% Calm Calm -- 29.86 in1011.2 mb 0.00 in0.0 mm 0.00 in0.0 mm 0.14 in3.6 mm
07:48 PM 60.6°F15.9°C 56.7°F13.7°C 87% Calm Calm -- 29.87 in1011.5 mb 0.00 in0.0 mm 0.00 in0.0 mm 0.14 in3.6 mm
07:53 PM 60.4°F15.8°C 56.8°F13.8°C 88% Calm Calm -- 29.87 in1011.5 mb 0.00 in0.0 mm 0.00 in0.0 mm 0.14 in3.6 mm
07:58 PM 60.3°F15.7°C 56.7°F13.7°C 88% Calm Calm -- 29.87 in1011.5 mb 0.00 in0.0 mm 0.00 in0.0 mm 0.14 in3.6 mm
08:03 PM 60.4°F15.8°C 57.2°F14.0°C 89% Calm Calm -- 29.87 in1011.5 mb 0.00 in0.0 mm 0.00 in0.0 mm 0.14 in3.6 mm
08:08 PM 60.3°F15.7°C 56.7°F13.7°C 88% Calm Calm -- 29.87 in1011.5 mb 0.00 in0.0 mm 0.00 in0.0 mm 0.14 in3.6 mm
08:13 PM 60.3°F15.7°C 57.0°F13.9°C 89% Calm Calm -- 29.88 in1011.9 mb 0.00 in0.0 mm 0.00 in0.0 mm 0.14 in3.6 mm
08:18 PM 60.4°F15.8°C 57.2°F14.0°C 89% Calm Calm -- 29.87 in1011.5 mb 0.00 in0.0 mm 0.00 in0.0 mm 0.14 in3.6 mm
08:23 PM 60.6°F15.9°C 57.4°F14.1°C 89% Calm Calm -- 29.87 in1011.5 mb 0.00 in0.0 mm 0.00 in0.0 mm 0.14 in3.6 mm
08:28 PM 60.6°F15.9°C 57.4°F14.1°C 89% Calm Calm -- 29.88 in1011.9 mb 0.00 in0.0 mm 0.00 in0.0 mm 0.14 in3.6 mm
08:33 PM 60.6°F15.9°C 57.4°F14.1°C 89% Calm Calm -- 29.88 in1011.9 mb 0.00 in0.0 mm 0.00 in0.0 mm 0.14 in3.6 mm
08:38 PM 60.6°F15.9°C 57.4°F14.1°C 89% Calm Calm -- 29.88 in1011.9 mb 0.00 in0.0 mm 0.00 in0.0 mm 0.14 in3.6 mm
08:43 PM 60.6°F15.9°C 57.7°F14.3°C 90% Calm Calm -- 29.88 in1011.9 mb 0.00 in0.0 mm 0.00 in0.0 mm 0.14 in3.6 mm
08:48 PM 60.4°F15.8°C 57.2°F14.0°C 89% Calm Calm -- 29.88 in1011.9 mb 0.00 in0.0 mm 0.00 in0.0 mm 0.14 in3.6 mm
08:53 PM 60.4°F15.8°C 57.6°F14.2°C 90% Calm Calm -- 29.88 in1011.9 mb 0.00 in0.0 mm 0.00 in0.0 mm 0.14 in3.6 mm
08:58 PM 60.4°F15.8°C 57.6°F14.2°C 90% Calm Calm -- 29.89 in1012.2 mb 0.00 in0.0 mm 0.00 in0.0 mm 0.14 in3.6 mm
09:03 PM 60.3°F15.7°C 57.4°F14.1°C 90% Calm Calm -- 29.88 in1011.9 mb 0.00 in0.0 mm 0.00 in0.0 mm 0.14 in3.6 mm
09:08 PM 59.9°F15.5°C 57.0°F13.9°C 90% Calm Calm -- 29.88 in1011.9 mb 0.00 in0.0 mm 0.00 in0.0 mm 0.14 in3.6 mm
09:13 PM 59.7°F15.4°C 56.8°F13.8°C 90% Calm Calm -- 29.89 in1012.2 mb 0.00 in0.0 mm 0.00 in0.0 mm 0.14 in3.6 mm
09:18 PM 59.5°F15.3°C 56.7°F13.7°C 90% Calm Calm -- 29.88 in1011.9 mb 0.00 in0.0 mm 0.00 in0.0 mm 0.14 in3.6 mm
09:28 PM 59.2°F15.1°C 56.3°F13.5°C 90% Calm Calm -- 29.88 in1011.9 mb 0.00 in0.0 mm 0.00 in0.0 mm 0.14 in3.6 mm
09:33 PM 58.8°F14.9°C 55.9°F13.3°C 90% Calm Calm -- 29.88 in1011.9 mb 0.00 in0.0 mm 0.00 in0.0 mm 0.14 in3.6 mm
09:38 PM 58.8°F14.9°C 56.1°F13.4°C 91% Calm Calm -- 29.89 in1012.2 mb 0.00 in0.0 mm 0.00 in0.0 mm 0.14 in3.6 mm
09:43 PM 59.2°F15.1°C 56.8°F13.8°C 92% Calm Calm -- 29.89 in1012.2 mb 0.00 in0.0 mm 0.00 in0.0 mm 0.14 in3.6 mm
09:48 PM 59.2°F15.1°C 56.8°F13.8°C 92% Calm Calm -- 29.89 in1012.2 mb 0.00 in0.0 mm 0.00 in0.0 mm 0.14 in3.6 mm
09:53 PM 59.4°F15.2°C 57.0°F13.9°C 92% Calm Calm -- 29.89 in1012.2 mb 0.00 in0.0 mm 0.00 in0.0 mm 0.14 in3.6 mm
09:58 PM 59.2°F15.1°C 56.8°F13.8°C 92% Calm Calm -- 29.88 in1011.9 mb 0.00 in0.0 mm 0.00 in0.0 mm 0.14 in3.6 mm
10:03 PM 58.8°F14.9°C 56.5°F13.6°C 92% Calm Calm -- 29.88 in1011.9 mb 0.00 in0.0 mm 0.00 in0.0 mm 0.14 in3.6 mm
10:08 PM 58.8°F14.9°C 56.5°F13.6°C 92% Calm Calm -- 29.88 in1011.9 mb 0.00 in0.0 mm 0.00 in0.0 mm 0.14 in3.6 mm
10:13 PM 58.8°F14.9°C 56.5°F13.6°C 92% Calm Calm -- 29.88 in1011.9 mb 0.00 in0.0 mm 0.00 in0.0 mm 0.14 in3.6 mm
10:18 PM 58.6°F14.8°C 56.3°F13.5°C 92% Calm Calm -- 29.88 in1011.9 mb 0.00 in0.0 mm 0.00 in0.0 mm 0.14 in3.6 mm
10:23 PM 58.5°F14.7°C 56.1°F13.4°C 92% Calm Calm -- 29.88 in1011.9 mb 0.00 in0.0 mm 0.00 in0.0 mm 0.14 in3.6 mm
10:28 PM 58.3°F14.6°C 55.9°F13.3°C 92% Calm Calm -- 29.88 in1011.9 mb 0.00 in0.0 mm 0.00 in0.0 mm 0.14 in3.6 mm
10:33 PM 58.3°F14.6°C 56.3°F13.5°C 93% Calm Calm -- 29.88 in1011.9 mb 0.00 in0.0 mm 0.00 in0.0 mm 0.14 in3.6 mm
10:38 PM 58.3°F14.6°C 55.9°F13.3°C 92% Calm Calm -- 29.88 in1011.9 mb 0.00 in0.0 mm 0.00 in0.0 mm 0.14 in3.6 mm
10:43 PM 57.9°F14.4°C 55.9°F13.3°C 93% Calm Calm -- 29.88 in1011.9 mb 0.00 in0.0 mm 0.00 in0.0 mm 0.14 in3.6 mm
10:48 PM 57.9°F14.4°C 55.9°F13.3°C 93% Calm Calm -- 29.88 in1011.9 mb 0.00 in0.0 mm 0.00 in0.0 mm 0.14 in3.6 mm
10:53 PM 57.9°F14.4°C 55.9°F13.3°C 93% Calm Calm -- 29.88 in1011.9 mb 0.00 in0.0 mm 0.00 in0.0 mm 0.14 in3.6 mm
10:58 PM 57.7°F14.3°C 55.8°F13.2°C 93% Calm Calm -- 29.88 in1011.9 mb 0.00 in0.0 mm 0.00 in0.0 mm 0.14 in3.6 mm
11:03 PM 57.9°F14.4°C 55.9°F13.3°C 93% Calm Calm -- 29.88 in1011.9 mb 0.00 in0.0 mm 0.00 in0.0 mm 0.12 in3.0 mm
11:08 PM 57.7°F14.3°C 55.8°F13.2°C 93% Calm Calm -- 29.88 in1011.9 mb 0.00 in0.0 mm 0.00 in0.0 mm 0.12 in3.0 mm
11:13 PM 57.7°F14.3°C 55.8°F13.2°C 93% Calm Calm -- 29.87 in1011.5 mb 0.00 in0.0 mm 0.00 in0.0 mm 0.12 in3.0 mm
11:18 PM 57.6°F14.2°C 55.6°F13.1°C 93% Calm Calm -- 29.88 in1011.9 mb 0.00 in0.0 mm 0.00 in0.0 mm 0.12 in3.0 mm
11:23 PM 57.7°F14.3°C 55.9°F13.3°C 94% Calm Calm -- 29.88 in1011.9 mb 0.00 in0.0 mm 0.00 in0.0 mm 0.12 in3.0 mm
11:28 PM 57.7°F14.3°C 55.9°F13.3°C 94% Calm Calm -- 29.87 in1011.5 mb 0.00 in0.0 mm 0.00 in0.0 mm 0.12 in3.0 mm
11:33 PM 57.7°F14.3°C 55.9°F13.3°C 94% Calm Calm -- 29.87 in1011.5 mb 0.00 in0.0 mm 0.00 in0.0 mm 0.12 in3.0 mm
11:38 PM 57.7°F14.3°C 55.9°F13.3°C 94% Calm Calm -- 29.87 in1011.5 mb 0.00 in0.0 mm 0.00 in0.0 mm 0.12 in3.0 mm
11:43 PM 57.7°F14.3°C 55.9°F13.3°C 94% Calm Calm -- 29.88 in1011.9 mb 0.00 in0.0 mm 0.00 in0.0 mm 0.12 in3.0 mm
11:48 PM 57.9°F14.4°C 56.1°F13.4°C 94% Calm Calm -- 29.88 in1011.9 mb 0.00 in0.0 mm 0.00 in0.0 mm 0.12 in3.0 mm
11:53 PM 57.9°F14.4°C 56.1°F13.4°C 94% Calm Calm -- 29.88 in1011.9 mb 0.00 in0.0 mm 0.00 in0.0 mm 0.12 in3.0 mm
11:58 PM 57.7°F14.3°C 55.9°F13.3°C 94% Calm Calm -- 29.88 in1011.9 mb 0.00 in0.0 mm 0.00 in0.0 mm 0.12 in3.0 mm